createdAt,value
2017-06-14T00:00:01.605Z,17.40
2017-06-14T00:02:30.798Z,17.40
2017-06-14T00:04:59.977Z,17.20
2017-06-14T00:07:28.432Z,17.20
2017-06-14T00:09:56.855Z,17.20
2017-06-14T00:12:26.061Z,17.10
2017-06-14T00:14:54.556Z,17.10
2017-06-14T00:17:23.021Z,17.20
2017-06-14T00:19:51.463Z,17.20
2017-06-14T00:22:19.929Z,17.20
2017-06-14T00:24:48.332Z,17.10
2017-06-14T00:27:16.744Z,17.00
2017-06-14T00:29:45.199Z,17.00
2017-06-14T00:32:14.406Z,16.90
2017-06-14T00:34:43.583Z,16.80
2017-06-14T00:37:12.789Z,16.80
2017-06-14T00:39:42.017Z,16.80
2017-06-14T00:42:10.451Z,16.80
2017-06-14T00:44:38.961Z,16.80
2017-06-14T00:47:07.381Z,16.70
2017-06-14T00:49:35.802Z,16.60
2017-06-14T00:52:05.027Z,16.70
2017-06-14T00:54:33.469Z,16.60
2017-06-14T00:57:01.918Z,16.70
2017-06-14T00:59:30.417Z,16.60
2017-06-14T01:01:58.824Z,16.70
2017-06-14T01:04:28.020Z,16.60
2017-06-14T01:06:57.338Z,16.60
2017-06-14T01:09:25.764Z,16.60
2017-06-14T01:11:54.196Z,16.60
2017-06-14T01:14:22.651Z,16.60
2017-06-14T01:16:51.083Z,16.50
2017-06-14T01:19:19.519Z,16.50
2017-06-14T01:21:48.717Z,16.50
2017-06-14T01:24:17.140Z,16.50
2017-06-14T01:26:45.566Z,16.50
2017-06-14T01:29:14.780Z,16.20
2017-06-14T01:31:43.227Z,16.20
2017-06-14T01:34:11.663Z,16.20
2017-06-14T01:36:40.125Z,16.20
2017-06-14T01:39:07.881Z,16.20
2017-06-14T01:41:36.384Z,16.20
2017-06-14T01:44:04.825Z,16.10
2017-06-14T01:46:34.008Z,16.10
2017-06-14T01:49:02.087Z,16.10
2017-06-14T01:51:31.303Z,16.10
2017-06-14T01:53:59.738Z,16.10
2017-06-14T01:56:28.160Z,16.10
2017-06-14T01:58:56.617Z,16.00
2017-06-14T02:01:25.042Z,16.00
2017-06-14T02:03:53.488Z,15.90
2017-06-14T02:06:22.708Z,15.90
2017-06-14T02:08:51.123Z,15.90
2017-06-14T02:11:19.557Z,15.90
2017-06-14T02:13:48.024Z,16.00
2017-06-14T02:16:17.225Z,16.00
2017-06-14T02:18:46.401Z,16.00
2017-06-14T02:21:14.848Z,16.00
2017-06-14T02:23:43.276Z,15.90
2017-06-14T02:26:12.588Z,15.80
2017-06-14T02:28:41.047Z,15.80
2017-06-14T02:31:10.240Z,15.60
2017-06-14T02:33:39.437Z,15.60
2017-06-14T02:36:07.861Z,15.60
2017-06-14T02:38:36.301Z,15.60
2017-06-14T02:41:05.489Z,15.50
2017-06-14T02:43:34.604Z,15.50
2017-06-14T02:46:03.088Z,15.50
2017-06-14T02:48:31.499Z,15.60
2017-06-14T02:50:59.945Z,15.60
2017-06-14T02:53:28.355Z,15.60
2017-06-14T02:55:56.872Z,15.60
2017-06-14T02:58:25.309Z,15.50
2017-06-14T03:00:53.724Z,15.40
2017-06-14T03:03:22.139Z,15.30
2017-06-14T03:05:50.579Z,15.20
2017-06-14T03:08:19.013Z,15.30
2017-06-14T03:10:47.441Z,15.30
2017-06-14T03:13:15.962Z,15.20
2017-06-14T03:15:44.380Z,15.30
2017-06-14T03:18:12.794Z,15.30
2017-06-14T03:20:46.804Z,15.30
2017-06-14T03:23:16.006Z,15.30
2017-06-14T03:25:45.191Z,15.30
2017-06-14T03:28:13.659Z,15.30
2017-06-14T03:30:42.081Z,15.30
2017-06-14T03:33:10.514Z,15.20
2017-06-14T03:35:38.991Z,15.20
2017-06-14T03:38:07.409Z,15.30
2017-06-14T03:40:36.593Z,15.30
2017-06-14T03:43:05.797Z,15.30
2017-06-14T03:45:34.988Z,15.20
2017-06-14T03:48:04.164Z,15.10
2017-06-14T03:50:32.625Z,15.00
2017-06-14T03:53:01.048Z,14.90
2017-06-14T03:55:30.230Z,14.80
2017-06-14T03:57:58.665Z,14.70
2017-06-14T04:00:27.089Z,14.80
2017-06-14T04:02:55.508Z,14.80
2017-06-14T04:05:23.956Z,14.80
2017-06-14T04:07:53.140Z,14.80
2017-06-14T04:10:21.564Z,14.80
2017-06-14T04:12:50.019Z,15.00
2017-06-14T04:15:19.222Z,15.20
2017-06-14T04:17:48.411Z,15.20
2017-06-14T04:20:17.729Z,15.20
2017-06-14T04:22:46.158Z,15.20
2017-06-14T04:25:14.580Z,15.10
2017-06-14T04:27:43.055Z,15.20
2017-06-14T04:30:11.481Z,15.20
2017-06-14T04:32:39.899Z,15.20
2017-06-14T04:35:09.115Z,15.40
2017-06-14T04:37:37.539Z,15.50
2017-06-14T04:40:05.964Z,15.50
2017-06-14T04:42:35.160Z,15.40
2017-06-14T04:45:04.356Z,15.50
2017-06-14T04:47:33.536Z,15.50
2017-06-14T04:50:01.990Z,15.50
2017-06-14T04:52:30.402Z,15.60
2017-06-14T04:54:59.601Z,15.70
2017-06-14T04:57:28.819Z,15.80
2017-06-14T04:59:57.269Z,15.70
2017-06-14T05:02:26.462Z,15.90
2017-06-14T05:04:55.676Z,15.80
2017-06-14T05:07:24.889Z,15.80
2017-06-14T05:09:53.304Z,15.80
2017-06-14T05:12:21.877Z,15.80
2017-06-14T05:14:50.352Z,15.90
2017-06-14T05:17:18.781Z,16.00
2017-06-14T05:19:47.237Z,16.10
2017-06-14T05:22:15.700Z,16.20
2017-06-14T05:24:44.125Z,16.20
2017-06-14T05:27:12.997Z,16.20
2017-06-14T05:29:41.418Z,16.20
2017-06-14T05:32:09.832Z,16.30
2017-06-14T05:34:38.293Z,16.20
2017-06-14T05:37:06.713Z,16.30
2017-06-14T05:39:35.128Z,16.40
2017-06-14T05:42:03.568Z,16.30
2017-06-14T05:44:31.993Z,16.20
2017-06-14T05:47:00.232Z,16.30
2017-06-14T05:49:29.438Z,16.50
2017-06-14T05:51:58.635Z,16.60
2017-06-14T05:54:27.829Z,16.60
2017-06-14T05:56:56.273Z,16.60
2017-06-14T05:59:24.672Z,16.60
2017-06-14T06:01:53.100Z,16.70
2017-06-14T06:04:21.540Z,16.70
2017-06-14T06:06:50.728Z,16.90
2017-06-14T06:09:19.153Z,16.90
2017-06-14T06:11:47.601Z,16.90
2017-06-14T06:14:16.791Z,17.00
2017-06-14T06:16:45.200Z,17.00
2017-06-14T06:19:13.645Z,17.10
2017-06-14T06:21:42.070Z,17.20
2017-06-14T06:24:10.498Z,17.10
2017-06-14T06:26:38.939Z,17.10
2017-06-14T06:29:07.364Z,17.20
2017-06-14T06:31:35.799Z,17.30
2017-06-14T06:34:04.249Z,17.40
2017-06-14T06:36:32.660Z,17.50
2017-06-14T06:39:01.073Z,17.50
2017-06-14T06:41:29.476Z,17.60
2017-06-14T06:43:58.681Z,17.60
2017-06-14T06:46:27.100Z,17.60
2017-06-14T06:48:55.549Z,17.60
2017-06-14T06:51:23.973Z,17.60
2017-06-14T06:53:52.389Z,17.60
2017-06-14T06:56:21.596Z,17.80
2017-06-14T06:58:50.020Z,17.80
2017-06-14T07:01:18.448Z,17.90
2017-06-14T07:03:46.888Z,17.90
2017-06-14T07:06:15.307Z,18.00
2017-06-14T07:08:43.737Z,17.90
2017-06-14T07:11:12.365Z,17.90
2017-06-14T07:13:40.853Z,17.90
2017-06-14T07:16:09.296Z,18.00
2017-06-14T07:18:37.740Z,18.10
2017-06-14T07:21:06.159Z,18.10
2017-06-14T07:23:34.582Z,18.20
2017-06-14T07:26:03.029Z,18.30
2017-06-14T07:28:32.215Z,18.40
2017-06-14T07:31:00.629Z,18.30
2017-06-14T07:33:29.070Z,18.40
2017-06-14T07:35:58.175Z,18.40
2017-06-14T07:38:27.362Z,18.60
2017-06-14T07:40:55.876Z,18.50
2017-06-14T07:43:24.292Z,18.70
2017-06-14T07:45:52.724Z,18.80
2017-06-14T07:48:21.856Z,18.80
2017-06-14T07:50:50.269Z,18.90
2017-06-14T07:53:18.691Z,19.00
2017-06-14T07:55:47.133Z,19.10
2017-06-14T07:58:15.553Z,19.20
2017-06-14T08:00:43.971Z,19.40
2017-06-14T08:03:12.429Z,19.50
2017-06-14T08:05:40.860Z,19.60
2017-06-14T08:08:09.304Z,19.70
2017-06-14T08:10:37.745Z,19.70
2017-06-14T08:13:06.160Z,19.80
2017-06-14T08:15:34.578Z,19.90
2017-06-14T08:18:03.023Z,20.10
2017-06-14T08:20:31.443Z,20.10
2017-06-14T08:23:00.659Z,20.20
2017-06-14T08:25:29.105Z,20.10
2017-06-14T08:27:58.297Z,20.30
2017-06-14T08:30:26.716Z,20.30
2017-06-14T08:32:55.167Z,20.40
2017-06-14T08:35:24.343Z,20.60
2017-06-14T08:37:52.857Z,20.60
2017-06-14T08:40:21.299Z,20.80
2017-06-14T08:42:49.726Z,20.90
2017-06-14T08:45:18.161Z,21.20
2017-06-14T08:47:46.610Z,21.40
2017-06-14T08:50:15.040Z,21.60
2017-06-14T08:52:44.216Z,21.90
2017-06-14T08:55:12.644Z,21.90
2017-06-14T08:57:41.063Z,22.10
2017-06-14T09:00:09.483Z,22.30
2017-06-14T09:02:38.699Z,22.60
2017-06-14T09:05:07.115Z,22.60
2017-06-14T09:07:36.220Z,22.80
2017-06-14T09:10:04.657Z,23.00
2017-06-14T09:12:33.071Z,23.20
2017-06-14T09:15:01.484Z,23.20
2017-06-14T09:17:30.011Z,23.10
2017-06-14T09:19:58.429Z,23.20
2017-06-14T09:22:26.856Z,23.40
2017-06-14T09:24:55.314Z,23.60
2017-06-14T09:27:23.791Z,23.60
2017-06-14T09:29:52.223Z,23.80
2017-06-14T09:32:20.651Z,23.90
2017-06-14T09:34:49.069Z,24.10
2017-06-14T09:37:17.508Z,24.40
2017-06-14T09:39:45.940Z,24.60
2017-06-14T09:42:14.472Z,24.60
2017-06-14T09:44:42.911Z,24.30
2017-06-14T09:47:11.351Z,24.40
2017-06-14T09:49:39.805Z,24.80
2017-06-14T09:52:08.229Z,25.00
2017-06-14T09:54:36.684Z,25.20
2017-06-14T09:57:05.116Z,25.30
2017-06-14T09:59:33.602Z,25.80
2017-06-14T10:02:02.851Z,26.40
2017-06-14T10:04:31.269Z,26.30
2017-06-14T10:06:59.717Z,26.70
2017-06-14T10:09:28.256Z,26.80
2017-06-14T10:11:56.676Z,26.70
2017-06-14T10:14:25.100Z,26.40
2017-06-14T10:16:53.524Z,26.30
2017-06-14T10:19:21.939Z,26.20
2017-06-14T10:21:50.356Z,26.20
2017-06-14T10:24:18.798Z,25.70
2017-06-14T10:26:47.213Z,25.80
2017-06-14T10:29:15.636Z,26.10
2017-06-14T10:31:44.080Z,26.30
2017-06-14T10:34:12.505Z,26.20
2017-06-14T10:36:40.917Z,26.10
2017-06-14T10:39:09.343Z,25.90
2017-06-14T10:41:37.773Z,25.80
2017-06-14T10:44:06.944Z,25.80
2017-06-14T10:46:35.393Z,25.80
2017-06-14T10:49:03.830Z,25.60
2017-06-14T10:51:33.012Z,25.90
2017-06-14T10:54:01.447Z,25.90
2017-06-14T10:56:29.880Z,26.10
2017-06-14T10:58:58.985Z,26.10
2017-06-14T11:01:27.437Z,25.90
2017-06-14T11:03:55.957Z,25.80
2017-06-14T11:06:24.392Z,25.90
2017-06-14T11:08:52.808Z,26.00
2017-06-14T11:11:21.227Z,25.90
2017-06-14T11:13:49.643Z,26.00
2017-06-14T11:16:18.851Z,26.20
2017-06-14T11:18:47.272Z,26.20
2017-06-14T11:21:15.685Z,26.30
2017-06-14T11:23:44.131Z,26.50
2017-06-14T11:26:12.580Z,26.00
2017-06-14T11:28:41.011Z,25.40
2017-06-14T11:31:10.160Z,25.30
2017-06-14T11:33:38.583Z,25.40
2017-06-14T11:36:07.025Z,25.60
2017-06-14T11:38:35.447Z,25.70
2017-06-14T11:41:03.857Z,25.60
2017-06-14T11:43:32.404Z,25.80
2017-06-14T11:46:00.920Z,26.10
2017-06-14T11:48:30.200Z,26.40
2017-06-14T11:50:59.515Z,26.40
2017-06-14T11:53:28.723Z,26.20
2017-06-14T11:55:57.138Z,26.20
2017-06-14T11:58:25.871Z,26.10
2017-06-14T12:00:55.111Z,25.90
2017-06-14T12:03:23.337Z,25.90
2017-06-14T12:05:51.892Z,25.90
2017-06-14T12:08:22.482Z,25.90
2017-06-14T12:10:51.522Z,25.80
2017-06-14T12:13:20.306Z,25.70
2017-06-14T12:15:49.231Z,25.60
2017-06-14T12:18:17.752Z,25.60
2017-06-14T12:20:46.339Z,25.60
2017-06-14T12:23:14.926Z,25.60
2017-06-14T12:25:43.728Z,25.50
2017-06-14T12:28:12.523Z,25.30
2017-06-14T12:30:41.147Z,25.20
2017-06-14T12:33:10.952Z,25.60
2017-06-14T12:35:39.522Z,25.50
2017-06-14T12:38:08.747Z,25.70
2017-06-14T12:40:37.175Z,25.70
2017-06-14T12:43:05.604Z,25.70
2017-06-14T12:45:34.073Z,25.80
2017-06-14T12:48:02.545Z,25.90
2017-06-14T12:50:30.968Z,25.90
2017-06-14T12:52:59.536Z,25.60
2017-06-14T12:55:27.956Z,25.50
2017-06-14T12:57:56.372Z,25.60
2017-06-14T13:00:24.860Z,25.60
2017-06-14T13:02:53.386Z,25.60
2017-06-14T13:05:21.833Z,25.80
2017-06-14T13:07:50.648Z,25.90
2017-06-14T13:10:19.526Z,25.80
2017-06-14T13:12:47.968Z,25.80
2017-06-14T13:15:16.412Z,25.60
2017-06-14T13:17:44.849Z,25.60
2017-06-14T13:20:13.281Z,25.60
2017-06-14T13:22:42.496Z,25.80
2017-06-14T13:25:11.679Z,25.90
2017-06-14T13:27:40.100Z,25.90
2017-06-14T13:30:09.502Z,25.90
2017-06-14T13:32:37.946Z,25.90
2017-06-14T13:35:06.384Z,25.90
2017-06-14T13:37:34.827Z,25.90
2017-06-14T13:40:03.326Z,25.90
2017-06-14T13:42:31.735Z,26.00
2017-06-14T13:45:00.198Z,26.10
2017-06-14T13:47:28.650Z,26.10
2017-06-14T13:49:57.070Z,26.00
2017-06-14T13:52:25.523Z,26.00
2017-06-14T13:54:53.957Z,25.90
2017-06-14T13:57:23.157Z,25.90
2017-06-14T13:59:51.593Z,25.90
2017-06-14T14:02:20.004Z,25.90
2017-06-14T14:04:48.408Z,25.90
2017-06-14T14:07:17.196Z,25.90
2017-06-14T14:09:45.618Z,25.80
2017-06-14T14:12:14.049Z,25.80
2017-06-14T14:14:42.493Z,25.90
2017-06-14T14:17:11.183Z,25.90
2017-06-14T14:19:40.394Z,25.90
2017-06-14T14:22:09.588Z,25.90
2017-06-14T14:24:38.783Z,25.90
2017-06-14T14:27:07.984Z,26.00
2017-06-14T14:29:36.424Z,26.00
2017-06-14T14:32:04.848Z,26.10
2017-06-14T14:34:33.303Z,26.20
2017-06-14T14:37:01.777Z,26.10
2017-06-14T14:39:30.229Z,26.00
2017-06-14T14:41:58.769Z,26.00
2017-06-14T14:44:27.965Z,25.90
2017-06-14T14:46:56.436Z,25.90
2017-06-14T14:49:24.928Z,25.90
2017-06-14T14:51:53.375Z,25.90
2017-06-14T14:54:21.791Z,25.90
2017-06-14T14:56:50.976Z,26.20
2017-06-14T14:59:19.436Z,26.20
2017-06-14T15:01:47.864Z,26.30
2017-06-14T15:04:16.284Z,26.20
2017-06-14T15:06:44.724Z,26.20
2017-06-14T15:09:13.138Z,26.20
2017-06-14T15:11:41.551Z,26.20
2017-06-14T15:14:10.744Z,26.20
2017-06-14T15:16:39.156Z,26.10
2017-06-14T15:19:07.584Z,26.20
2017-06-14T15:21:36.044Z,26.30
2017-06-14T15:24:04.480Z,26.20
2017-06-14T15:26:32.898Z,26.20
2017-06-14T15:29:01.350Z,26.20
2017-06-14T15:31:29.761Z,26.20
2017-06-14T15:33:58.201Z,26.20
2017-06-14T15:36:33.745Z,26.20
2017-06-14T15:39:04.585Z,26.20
2017-06-14T15:41:33.109Z,26.10
2017-06-14T15:44:01.517Z,26.20
2017-06-14T15:46:30.696Z,26.20
2017-06-14T15:48:59.138Z,26.20
2017-06-14T15:51:27.898Z,26.20
2017-06-14T15:53:57.076Z,26.30
2017-06-14T15:56:25.527Z,26.30
2017-06-14T15:58:54.009Z,26.30
2017-06-14T16:01:22.432Z,26.30
2017-06-14T16:03:51.630Z,26.40
2017-06-14T16:06:20.044Z,26.40
2017-06-14T16:08:48.468Z,26.40
2017-06-14T16:11:16.904Z,26.40
2017-06-14T16:13:45.332Z,26.50
2017-06-14T16:16:13.761Z,26.40
2017-06-14T16:18:42.309Z,26.40
2017-06-14T16:21:10.728Z,26.40
2017-06-14T16:23:39.153Z,26.40
2017-06-14T16:26:07.600Z,26.40
2017-06-14T16:28:36.036Z,26.30
2017-06-14T16:31:04.476Z,26.20
2017-06-14T16:33:33.804Z,26.20
2017-06-14T16:36:02.495Z,26.20
2017-06-14T16:38:31.072Z,26.10
2017-06-14T16:40:59.524Z,26.10
2017-06-14T16:43:28.700Z,26.10
2017-06-14T16:45:57.276Z,26.10
2017-06-14T16:48:25.756Z,26.10
2017-06-14T16:50:54.543Z,26.10
2017-06-14T16:53:23.743Z,26.00
2017-06-14T16:55:52.186Z,26.00
2017-06-14T16:58:20.681Z,25.90
2017-06-14T17:00:49.298Z,25.90
2017-06-14T17:03:17.950Z,25.90
2017-06-14T17:05:46.368Z,25.90
2017-06-14T17:08:15.568Z,25.80
2017-06-14T17:10:44.817Z,25.80
2017-06-14T17:13:14.255Z,25.80
2017-06-14T17:15:42.901Z,25.80
2017-06-14T17:18:11.335Z,25.80
2017-06-14T17:20:39.777Z,25.80
2017-06-14T17:23:08.200Z,25.80
2017-06-14T17:25:36.631Z,25.70
2017-06-14T17:28:05.046Z,25.70
2017-06-14T17:30:34.270Z,25.70
2017-06-14T17:33:02.708Z,25.70
2017-06-14T17:35:31.133Z,25.70
2017-06-14T17:37:59.557Z,25.70
2017-06-14T17:40:28.325Z,25.70
2017-06-14T17:42:56.880Z,25.70
2017-06-14T17:45:25.296Z,25.60
2017-06-14T17:47:53.996Z,25.60
2017-06-14T17:50:22.715Z,25.60
2017-06-14T17:52:52.277Z,25.50
2017-06-14T17:55:20.729Z,25.50
2017-06-14T17:57:49.377Z,25.50
2017-06-14T18:00:18.556Z,25.50
2017-06-14T18:02:47.785Z,25.50
2017-06-14T18:05:17.324Z,25.50
2017-06-14T18:07:45.752Z,25.50
2017-06-14T18:10:14.972Z,25.50
2017-06-14T18:12:43.447Z,25.50
2017-06-14T18:15:11.869Z,25.50
2017-06-14T18:17:40.317Z,25.50
2017-06-14T18:20:08.730Z,25.50
2017-06-14T18:22:37.152Z,25.40
2017-06-14T18:25:05.660Z,25.40
2017-06-14T18:27:34.106Z,25.40
2017-06-14T18:30:02.544Z,25.30
2017-06-14T18:32:31.021Z,25.40
2017-06-14T18:35:00.463Z,25.30
2017-06-14T18:37:29.439Z,25.30
2017-06-14T18:39:58.603Z,25.30
2017-06-14T18:42:28.925Z,25.30
2017-06-14T18:44:57.613Z,25.30
2017-06-14T18:47:26.230Z,25.20
2017-06-14T18:49:56.228Z,25.20
2017-06-14T18:52:25.511Z,25.20
2017-06-14T18:54:56.482Z,25.20
2017-06-14T18:57:27.926Z,25.10
2017-06-14T18:59:58.090Z,25.10
2017-06-14T19:02:29.623Z,25.10
2017-06-14T19:04:58.936Z,25.10
2017-06-14T19:07:27.366Z,25.10
2017-06-14T19:09:55.996Z,25.10
2017-06-14T19:12:24.447Z,25.00
2017-06-14T19:14:52.926Z,25.00
2017-06-14T19:17:22.545Z,24.90
2017-06-14T19:19:50.968Z,24.90
2017-06-14T19:22:19.213Z,24.90
2017-06-14T19:24:47.464Z,24.90
2017-06-14T19:27:16.484Z,24.90
2017-06-14T19:29:44.775Z,24.90
2017-06-14T19:32:13.233Z,24.90
2017-06-14T19:34:47.064Z,24.80
2017-06-14T19:37:15.546Z,24.80
2017-06-14T19:39:43.969Z,24.80
2017-06-14T19:42:13.259Z,24.70
2017-06-14T19:44:41.744Z,24.70
2017-06-14T19:47:10.266Z,24.60
2017-06-14T19:49:38.670Z,24.50
2017-06-14T19:52:07.423Z,24.40
2017-06-14T19:54:35.858Z,24.30
2017-06-14T19:57:04.298Z,24.20
2017-06-14T19:59:32.745Z,24.20
2017-06-14T20:02:01.165Z,24.10
2017-06-14T20:04:29.590Z,24.00
2017-06-14T20:06:58.913Z,24.00
2017-06-14T20:09:27.350Z,23.90
2017-06-14T20:11:55.570Z,23.90
2017-06-14T20:14:24.058Z,23.80
2017-06-14T20:16:52.481Z,23.80
2017-06-14T20:19:20.910Z,23.70
2017-06-14T20:21:49.387Z,23.70
2017-06-14T20:24:17.837Z,23.70
2017-06-14T20:26:47.020Z,23.50
2017-06-14T20:29:15.646Z,23.50
2017-06-14T20:31:44.058Z,23.50
2017-06-14T20:34:12.481Z,23.50
2017-06-14T20:36:41.714Z,23.40
2017-06-14T20:39:10.129Z,23.40
2017-06-14T20:41:38.544Z,23.30
2017-06-14T20:44:07.777Z,23.30
2017-06-14T20:46:36.198Z,23.30
2017-06-14T20:49:04.641Z,23.30
2017-06-14T20:51:33.733Z,23.30
2017-06-14T20:54:02.172Z,23.20
2017-06-14T20:56:31.405Z,23.20
2017-06-14T20:59:02.342Z,23.20
2017-06-14T21:01:30.786Z,23.20
2017-06-14T21:03:59.991Z,23.10
2017-06-14T21:06:29.196Z,23.00
2017-06-14T21:08:57.648Z,23.00
2017-06-14T21:11:26.856Z,23.00
2017-06-14T21:13:56.218Z,23.00
2017-06-14T21:16:24.627Z,23.00
2017-06-14T21:18:53.829Z,22.90
2017-06-14T21:21:23.211Z,22.80
2017-06-14T21:23:51.752Z,22.80
2017-06-14T21:26:20.162Z,22.70
2017-06-14T21:28:48.993Z,22.60
2017-06-14T21:31:17.432Z,22.60
2017-06-14T21:33:45.856Z,22.50
2017-06-14T21:36:14.529Z,22.50
2017-06-14T21:38:43.745Z,22.30
2017-06-14T21:41:12.161Z,22.30
2017-06-14T21:43:40.753Z,22.30
2017-06-14T21:46:09.189Z,22.30
2017-06-14T21:48:37.649Z,22.30
2017-06-14T21:51:06.341Z,22.30
2017-06-14T21:53:34.784Z,22.20
2017-06-14T21:56:03.241Z,22.20
2017-06-14T21:58:31.687Z,22.10
2017-06-14T22:01:00.118Z,22.10
2017-06-14T22:03:28.595Z,22.00
2017-06-14T22:05:57.203Z,21.90
2017-06-14T22:08:26.393Z,21.90
2017-06-14T22:10:55.586Z,21.90
2017-06-14T22:13:24.791Z,21.90
2017-06-14T22:15:53.990Z,21.80
2017-06-14T22:18:23.203Z,21.90
2017-06-14T22:20:51.792Z,21.90
2017-06-14T22:23:20.275Z,21.90
2017-06-14T22:25:48.705Z,21.90
2017-06-14T22:28:17.360Z,21.80
2017-06-14T22:30:45.902Z,21.70
2017-06-14T22:33:15.160Z,21.60
2017-06-14T22:35:43.933Z,21.60
2017-06-14T22:38:13.090Z,21.60
2017-06-14T22:40:41.537Z,21.60
2017-06-14T22:43:10.157Z,21.50
2017-06-14T22:45:38.626Z,21.60
2017-06-14T22:48:07.811Z,21.50
2017-06-14T22:50:37.262Z,21.50
2017-06-14T22:53:05.679Z,21.50
2017-06-14T22:55:34.099Z,21.40
2017-06-14T22:58:02.533Z,21.30
2017-06-14T23:00:30.945Z,21.20
2017-06-14T23:02:59.388Z,21.10
2017-06-14T23:05:27.941Z,21.10
2017-06-14T23:07:56.363Z,21.10
2017-06-14T23:10:24.813Z,21.10
2017-06-14T23:12:53.260Z,21.10
2017-06-14T23:15:21.674Z,21.10
2017-06-14T23:17:50.093Z,21.00
2017-06-14T23:20:19.510Z,20.90
2017-06-14T23:22:47.956Z,20.90
2017-06-14T23:25:16.380Z,20.90
2017-06-14T23:27:45.278Z,20.80
2017-06-14T23:30:13.709Z,20.80
2017-06-14T23:32:42.138Z,20.70
2017-06-14T23:35:10.721Z,20.70
2017-06-14T23:37:39.180Z,20.70
2017-06-14T23:40:07.594Z,20.60
2017-06-14T23:42:36.104Z,20.60
2017-06-14T23:45:05.325Z,20.50
2017-06-14T23:47:34.529Z,20.60
2017-06-14T23:50:03.315Z,20.50
2017-06-14T23:52:31.783Z,20.60
2017-06-14T23:55:01.111Z,20.60
2017-06-14T23:57:29.805Z,20.60
2017-06-14T23:59:58.236Z,20.50
